Time;durP1;ratioP1;P1;durP2;ratioP2;P2;SDS_P1;SDS_P2;PMS_P1;PMS_P2;Temp;Humidity;BMP_temperature;BMP_pressure;BME280_temperature;BME280_humidity;BME280_pressure;Samples;Min_cycle;Max_cycle;Signal;HPM_P1;HPM_P2
2023/01/06 00:00:01;;;;;;;3.00;2.30;;;11.20;99.90;;;;;;5110990;28;21032;-54
2023/01/06 00:02:29;;;;;;;2.30;2.10;;;11.30;99.90;;;;;;5113400;28;20480;-54
2023/01/06 00:04:56;;;;;;;2.00;1.80;;;11.30;99.90;;;;;;5112797;28;20438;-54
2023/01/06 00:07:23;;;;;;;2.03;1.80;;;11.30;99.90;;;;;;5110898;28;20465;-54
2023/01/06 00:09:51;;;;;;;2.47;1.87;;;11.40;99.90;;;;;;5113301;28;20876;-55
2023/01/06 00:12:18;;;;;;;2.60;2.00;;;11.40;99.90;;;;;;5113022;28;20533;-55
2023/01/06 00:14:46;;;;;;;1.87;1.60;;;11.40;99.90;;;;;;5111088;28;20562;-54
2023/01/06 00:17:13;;;;;;;1.67;1.57;;;11.40;99.90;;;;;;5113363;28;20863;-55
2023/01/06 00:19:42;;;;;;;2.17;1.63;;;11.30;99.90;;;;;;5113284;28;20498;-55
2023/01/06 00:22:09;;;;;;;1.83;1.50;;;11.40;99.90;;;;;;5110999;28;20450;-54
2023/01/06 00:24:36;;;;;;;2.27;1.70;;;11.40;99.90;;;;;;5113052;28;20442;-56
2023/01/06 00:27:04;;;;;;;1.87;1.70;;;11.40;99.90;;;;;;5113082;28;20446;-55
2023/01/06 00:29:31;;;;;;;3.33;1.90;;;11.40;99.90;;;;;;5110713;28;20457;-54
2023/01/06 00:31:59;;;;;;;1.60;1.50;;;11.40;99.90;;;;;;5113008;28;20447;-54
2023/01/06 00:34:26;;;;;;;1.90;1.53;;;11.40;99.90;;;;;;5112985;28;20510;-54
2023/01/06 00:36:55;;;;;;;2.27;1.70;;;11.40;99.90;;;;;;5111043;28;20443;-55
2023/01/06 00:39:22;;;;;;;1.73;1.63;;;11.40;99.90;;;;;;5113109;28;20481;-54
2023/01/06 00:42:05;;;;;;;2.60;1.73;;;11.40;99.90;;;;;;5112592;28;20542;-54
2023/01/06 00:44:34;;;;;;;1.97;1.60;;;11.50;99.90;;;;;;5110539;28;20478;-55
2023/01/06 00:47:02;;;;;;;1.93;1.73;;;11.50;99.90;;;;;;5113166;28;20427;-55
2023/01/06 00:49:30;;;;;;;1.97;1.73;;;11.50;99.90;;;;;;5112433;28;20451;-54
2023/01/06 00:51:58;;;;;;;2.17;1.80;;;11.50;99.90;;;;;;5110921;28;20548;-54
2023/01/06 00:54:26;;;;;;;2.43;1.70;;;11.40;99.90;;;;;;5112542;28;20449;-55
2023/01/06 00:56:54;;;;;;;4.13;2.17;;;11.30;99.90;;;;;;5112143;28;20979;-55
2023/01/06 00:59:23;;;;;;;2.70;1.93;;;11.30;99.90;;;;;;5110633;28;20861;-55
2023/01/06 01:01:52;;;;;;;4.77;2.00;;;11.30;99.90;;;;;;5112878;28;20542;-55
2023/01/06 01:04:20;;;;;;;2.70;1.93;;;11.20;99.90;;;;;;5112555;28;20453;-55
2023/01/06 01:06:48;;;;;;;2.67;1.93;;;11.30;99.90;;;;;;5110932;28;20443;-55
2023/01/06 01:09:20;;;;;;;2.27;2.07;;;11.30;99.90;;;;;;5112470;28;20490;-55
2023/01/06 01:14:33;;;;;;;1.80;1.70;;;11.20;99.90;;;;;;5110676;28;20399;-55
2023/01/06 01:17:00;;;;;;;2.13;1.93;;;11.20;99.90;;;;;;5114331;28;20573;-55
2023/01/06 01:19:29;;;;;;;1.87;1.77;;;11.20;99.90;;;;;;5116246;28;20537;-55
2023/01/06 01:21:56;;;;;;;4.40;2.00;;;11.20;99.90;;;;;;5114614;28;20449;-55
2023/01/06 01:24:24;;;;;;;2.40;1.93;;;11.10;99.90;;;;;;5115967;28;20453;-54
2023/01/06 01:26:52;;;;;;;2.83;2.10;;;11.10;99.90;;;;;;5115853;28;20442;-55
2023/01/06 01:29:19;;;;;;;1.80;1.70;;;11.10;99.90;;;;;;5114368;28;20443;-55
2023/01/06 01:31:47;;;;;;;1.97;1.87;;;11.10;99.90;;;;;;5115849;28;20504;-54
2023/01/06 01:34:16;;;;;;;5.00;2.10;;;11.10;99.90;;;;;;5115989;28;20543;-54
2023/01/06 01:36:45;;;;;;;1.70;1.60;;;11.10;99.90;;;;;;5114210;28;20474;-56
2023/01/06 01:39:13;;;;;;;3.00;1.70;;;11.10;99.90;;;;;;5116046;28;20454;-54
2023/01/06 01:41:43;;;;;;;1.93;1.70;;;11.00;99.90;;;;;;5115710;28;20534;-55
2023/01/06 01:44:47;;;;;;;1.73;1.63;;;11.10;99.90;;;;;;5113826;28;20824;-55
2023/01/06 01:47:16;;;;;;;3.23;1.70;;;11.10;99.90;;;;;;5114981;28;20812;-54
2023/01/06 01:49:46;;;;;;;2.03;1.83;;;11.10;99.90;;;;;;5115486;28;20545;-55
2023/01/06 01:52:15;;;;;;;1.87;1.73;;;11.00;99.90;;;;;;5114059;28;20454;-55
2023/01/06 01:54:43;;;;;;;2.40;2.03;;;11.00;99.90;;;;;;5115360;28;20450;-55
2023/01/06 01:57:15;;;;;;;2.10;2.00;;;10.90;99.90;;;;;;5115416;28;21008;-55
2023/01/06 01:59:44;;;;;;;2.17;1.93;;;10.90;99.90;;;;;;5114940;28;20459;-54
2023/01/06 02:02:13;;;;;;;3.73;1.40;;;10.90;99.90;;;;;;5115456;28;20451;-55
2023/01/06 02:04:43;;;;;;;3.07;1.90;;;10.90;99.90;;;;;;5114413;28;20446;-54
2023/01/06 02:07:11;;;;;;;2.33;1.90;;;10.90;99.90;;;;;;5114932;28;20433;-54
2023/01/06 02:09:44;;;;;;;2.70;1.53;;;10.90;99.90;;;;;;5115179;28;20436;-55
2023/01/06 02:12:12;;;;;;;3.07;1.90;;;10.90;99.90;;;;;;5113478;28;20426;-54
2023/01/06 02:14:40;;;;;;;2.40;1.90;;;10.90;99.90;;;;;;5115128;28;20549;-54
2023/01/06 02:17:19;;;;;;;2.33;1.90;;;10.90;99.90;;;;;;5115293;28;20479;-54
2023/01/06 02:20:20;;;;;;;5.83;1.67;;;10.90;99.90;;;;;;5113287;28;20740;-55
2023/01/06 02:23:20;;;;;;;1.80;1.70;;;11.00;99.90;;;;;;5110816;28;20461;-55
2023/01/06 02:26:27;;;;;;;1.70;1.57;;;11.00;99.90;;;;;;5063609;28;20455;-55
2023/01/06 02:29:19;;;;;;;2.10;1.90;;;11.00;99.90;;;;;;5082670;28;20495;-56
2023/01/06 02:31:59;;;;;;;2.07;1.70;;;11.00;99.90;;;;;;5114992;28;20510;-54
2023/01/06 02:34:40;;;;;;;2.00;1.70;;;11.00;99.90;;;;;;5113141;28;20946;-54
2023/01/06 02:37:19;;;;;;;2.70;2.50;;;11.10;99.90;;;;;;5114482;28;20458;-55
2023/01/06 02:40:06;;;;;;;2.33;2.00;;;11.10;99.90;;;;;;5114819;28;20465;-54
2023/01/06 02:42:42;;;;;;;1.93;1.60;;;11.00;99.90;;;;;;5112769;28;20928;-54
2023/01/06 02:45:19;;;;;;;2.63;1.90;;;11.10;99.90;;;;;;5114391;28;20480;-55
2023/01/06 02:47:56;;;;;;;1.70;1.60;;;11.00;99.90;;;;;;5114619;28;20924;-56
2023/01/06 02:50:34;;;;;;;2.03;1.83;;;11.10;99.90;;;;;;5112373;28;20520;-55
2023/01/06 02:53:08;;;;;;;1.63;1.53;;;11.10;99.90;;;;;;5114568;28;20407;-55
2023/01/06 02:55:39;;;;;;;1.73;1.63;;;11.10;99.90;;;;;;5114004;28;20451;-55
2023/01/06 02:58:12;;;;;;;2.33;1.60;;;11.10;99.90;;;;;;5112652;28;20502;-55
2023/01/06 03:00:42;;;;;;;2.30;2.00;;;11.20;99.90;;;;;;5114540;28;20455;-56
2023/01/06 03:03:14;;;;;;;2.30;2.10;;;11.20;99.90;;;;;;5114741;28;20426;-55
2023/01/06 03:05:44;;;;;;;4.00;2.30;;;11.30;99.90;;;;;;5112332;28;20423;-55
2023/01/06 03:08:15;;;;;;;2.10;1.90;;;11.30;99.90;;;;;;5114679;28;20450;-55
2023/01/06 03:10:44;;;;;;;2.07;1.87;;;11.20;99.90;;;;;;5114049;28;20459;-54
2023/01/06 03:13:17;;;;;;;1.67;1.57;;;11.30;99.90;;;;;;5112230;28;20442;-55
2023/01/06 03:15:44;;;;;;;4.47;1.90;;;11.20;99.90;;;;;;5114044;28;20551;-55
2023/01/06 03:18:13;;;;;;;2.60;2.40;;;11.20;99.90;;;;;;5113749;28;20797;-55
2023/01/06 03:20:40;;;;;;;2.10;2.00;;;11.20;99.90;;;;;;5111852;28;20467;-55
2023/01/06 03:23:07;;;;;;;3.00;1.70;;;11.20;99.90;;;;;;5113947;28;20442;-54
2023/01/06 03:25:37;;;;;;;3.00;1.83;;;11.30;99.90;;;;;;5113608;28;20474;-56
2023/01/06 03:28:04;;;;;;;2.03;1.60;;;11.20;99.90;;;;;;5111842;28;20960;-55
2023/01/06 03:30:39;;;;;;;2.77;2.20;;;11.20;99.90;;;;;;5113785;28;20888;-55
2023/01/06 03:33:17;;;;;;;2.77;1.93;;;11.20;99.90;;;;;;5113649;28;20483;-55
2023/01/06 03:35:56;;;;;;;2.30;1.87;;;11.20;99.90;;;;;;5111746;28;20466;-55
2023/01/06 03:38:31;;;;;;;1.70;1.60;;;11.10;99.90;;;;;;5114006;28;20564;-55
2023/01/06 03:41:01;;;;;;;1.50;1.40;;;11.00;99.90;;;;;;5111322;28;20442;-55
2023/01/06 03:43:36;;;;;;;1.90;1.70;;;11.00;99.90;;;;;;5113899;28;20546;-55
2023/01/06 03:46:22;;;;;;;1.70;1.60;;;10.80;99.90;;;;;;5112912;28;20470;-55
2023/01/06 03:48:58;;;;;;;1.90;1.50;;;10.80;99.90;;;;;;5111341;28;20435;-56
2023/01/06 03:51:38;;;;;;;1.63;1.53;;;10.80;99.90;;;;;;5113658;28;20517;-55
2023/01/06 03:54:13;;;;;;;2.47;1.60;;;10.80;99.90;;;;;;5113275;28;20427;-55
2023/01/06 03:56:45;;;;;;;2.50;1.90;;;10.80;99.90;;;;;;5111249;28;20839;-55
2023/01/06 03:59:19;;;;;;;2.10;1.77;;;10.70;99.90;;;;;;5113563;28;20785;-55
2023/01/06 04:01:47;;;;;;;3.70;1.73;;;10.60;99.90;;;;;;5113395;28;20477;-55
2023/01/06 04:04:16;;;;;;;2.17;1.77;;;10.60;99.90;;;;;;5111529;28;20446;-55
2023/01/06 04:06:44;;;;;;;2.73;1.60;;;10.50;99.90;;;;;;5113408;28;20443;-55
2023/01/06 04:09:11;;;;;;;1.83;1.73;;;10.50;99.90;;;;;;5113428;28;20438;-55
2023/01/06 04:14:23;;;;;;;1.80;1.60;;;10.40;99.90;;;;;;5112187;28;20406;-55
2023/01/06 04:16:50;;;;;;;1.77;1.67;;;10.30;99.90;;;;;;5113247;28;20505;-56
2023/01/06 04:19:19;;;;;;;5.50;1.80;;;10.30;99.90;;;;;;5111501;28;20446;-55
2023/01/06 04:21:46;;;;;;;2.67;1.80;;;10.40;99.90;;;;;;5112769;28;20447;-55
2023/01/06 04:24:13;;;;;;;1.97;1.87;;;10.40;99.90;;;;;;5113056;28;20947;-55
2023/01/06 04:26:40;;;;;;;2.53;1.77;;;10.40;99.90;;;;;;5111256;28;20449;-55
2023/01/06 04:29:07;;;;;;;2.23;1.70;;;10.40;99.90;;;;;;5112726;28;20991;-55
2023/01/06 04:31:34;;;;;;;2.23;1.80;;;10.40;99.90;;;;;;5113030;28;20541;-56
2023/01/06 04:34:01;;;;;;;2.90;2.00;;;10.50;99.90;;;;;;5111284;28;20791;-55
2023/01/06 04:36:30;;;;;;;1.80;1.70;;;10.40;99.90;;;;;;5112608;28;20478;-55
2023/01/06 04:38:58;;;;;;;1.70;1.60;;;10.50;99.90;;;;;;5113371;28;20460;-55
2023/01/06 04:41:25;;;;;;;1.87;1.77;;;10.40;99.90;;;;;;5110715;28;20466;-56
2023/01/06 04:43:52;;;;;;;2.50;1.60;;;10.40;99.90;;;;;;5112922;28;20458;-56
2023/01/06 04:46:19;;;;;;;1.70;1.60;;;10.40;99.90;;;;;;5112888;28;20474;-55
2023/01/06 04:48:46;;;;;;;1.90;1.80;;;10.30;99.90;;;;;;5110640;28;20447;-56
2023/01/06 04:51:13;;;;;;;2.10;1.80;;;10.20;99.90;;;;;;5112877;28;20470;-56
2023/01/06 04:53:42;;;;;;;3.40;1.93;;;10.20;99.90;;;;;;5116732;28;20446;-56
2023/01/06 04:56:10;;;;;;;2.90;1.60;;;10.20;99.90;;;;;;5114632;28;20576;-56
2023/01/06 04:58:38;;;;;;;2.07;1.83;;;10.20;99.90;;;;;;5116313;28;20446;-55
2023/01/06 05:01:07;;;;;;;2.03;1.83;;;10.30;99.90;;;;;;5116915;28;20557;-56
2023/01/06 05:03:34;;;;;;;3.20;1.80;;;10.30;99.90;;;;;;5114681;28;20443;-56
2023/01/06 05:06:02;;;;;;;2.30;2.10;;;10.30;99.90;;;;;;5116407;28;20450;-55
2023/01/06 05:08:30;;;;;;;2.10;1.90;;;10.30;99.90;;;;;;5116697;28;20962;-55
2023/01/06 05:11:03;;;;;;;2.73;1.80;;;10.40;99.90;;;;;;5114104;28;20466;-55
2023/01/06 05:13:31;;;;;;;3.13;1.80;;;10.50;99.90;;;;;;5116664;28;20434;-56
2023/01/06 05:15:59;;;;;;;2.07;1.90;;;10.50;99.90;;;;;;5116340;28;20447;-55
2023/01/06 05:18:26;;;;;;;2.67;2.23;;;10.50;99.90;;;;;;5114298;28;20503;-55
2023/01/06 05:20:54;;;;;;;2.10;1.87;;;10.60;99.90;;;;;;5116186;28;20468;-55
2023/01/06 05:23:22;;;;;;;2.03;1.73;;;10.50;99.90;;;;;;5116405;28;20480;-55
2023/01/06 05:25:51;;;;;;;2.30;2.10;;;10.50;99.90;;;;;;5113857;28;20431;-56
2023/01/06 05:28:20;;;;;;;4.70;2.73;;;10.60;99.90;;;;;;5116395;28;20733;-55
2023/01/06 05:30:47;;;;;;;2.03;1.93;;;10.60;99.90;;;;;;5116203;28;20481;-55
2023/01/06 05:33:15;;;;;;;1.93;1.70;;;10.50;99.90;;;;;;5113874;28;20541;-55
2023/01/06 05:35:42;;;;;;;2.13;1.90;;;10.60;99.90;;;;;;5115972;28;20450;-55
2023/01/06 05:38:09;;;;;;;2.23;1.93;;;10.60;99.90;;;;;;5115933;28;20479;-55
2023/01/06 05:40:36;;;;;;;2.40;2.20;;;10.70;99.90;;;;;;5113992;28;20463;-56
2023/01/06 05:43:03;;;;;;;1.87;1.70;;;10.70;99.90;;;;;;5115817;28;20443;-55
2023/01/06 05:45:31;;;;;;;2.43;2.23;;;10.70;99.90;;;;;;5115504;28;20572;-55
2023/01/06 05:48:01;;;;;;;2.90;2.23;;;10.70;99.90;;;;;;5113113;28;20804;-56
2023/01/06 05:50:28;;;;;;;2.17;1.97;;;10.60;99.90;;;;;;5115875;28;20470;-56
2023/01/06 05:52:55;;;;;;;3.17;1.80;;;10.60;99.90;;;;;;5115714;28;20776;-56
2023/01/06 05:55:22;;;;;;;2.43;2.23;;;10.60;99.90;;;;;;5113123;28;20453;-56
2023/01/06 05:57:49;;;;;;;3.13;2.10;;;10.60;99.90;;;;;;5115707;28;20514;-56
2023/01/06 06:00:16;;;;;;;2.10;1.77;;;10.60;99.90;;;;;;5115368;28;20553;-55
2023/01/06 06:02:45;;;;;;;2.73;2.50;;;10.50;99.90;;;;;;5112575;28;20442;-56
2023/01/06 06:05:12;;;;;;;2.20;2.00;;;10.50;99.90;;;;;;5115587;28;20479;-55
2023/01/06 06:07:39;;;;;;;2.47;2.20;;;10.40;99.90;;;;;;5115341;28;20816;-56
2023/01/06 06:10:08;;;;;;;2.17;1.97;;;10.50;99.90;;;;;;5113237;28;20463;-56
2023/01/06 06:12:35;;;;;;;2.40;2.20;;;10.50;99.90;;;;;;5115596;28;20461;-55
2023/01/06 06:15:02;;;;;;;3.50;2.17;;;10.50;99.90;;;;;;5115058;28;20449;-55
2023/01/06 06:17:31;;;;;;;2.13;1.93;;;10.50;99.90;;;;;;5113242;28;20489;-55
2023/01/06 06:20:00;;;;;;;1.90;1.80;;;10.50;99.90;;;;;;5115020;28;20999;-55
2023/01/06 06:22:27;;;;;;;1.80;1.70;;;10.50;99.90;;;;;;5114920;28;20427;-55
2023/01/06 06:24:54;;;;;;;2.37;2.17;;;10.50;99.90;;;;;;5112988;28;20525;-55
2023/01/06 06:27:21;;;;;;;2.40;2.20;;;10.50;99.90;;;;;;5115025;28;21176;-56
2023/01/06 06:29:48;;;;;;;2.50;2.20;;;10.50;99.90;;;;;;5114914;28;20463;-55
2023/01/06 06:32:15;;;;;;;2.90;2.40;;;10.60;99.90;;;;;;5112728;28;20540;-56
2023/01/06 06:34:43;;;;;;;2.70;1.80;;;10.60;99.90;;;;;;5114972;28;20443;-55
2023/01/06 06:37:11;;;;;;;2.20;2.00;;;10.70;99.90;;;;;;5114633;28;20558;-56
2023/01/06 06:39:38;;;;;;;3.03;1.80;;;10.70;99.90;;;;;;5112779;28;20546;-56
2023/01/06 06:42:06;;;;;;;1.93;1.80;;;10.70;99.90;;;;;;5114833;28;20868;-55
2023/01/06 06:44:33;;;;;;;2.47;1.80;;;10.70;99.90;;;;;;5114025;28;20477;-56
2023/01/06 06:47:00;;;;;;;5.00;2.40;;;10.60;99.90;;;;;;5112954;28;20510;-56
2023/01/06 06:49:27;;;;;;;2.47;2.27;;;10.60;99.90;;;;;;5114494;28;20449;-56
2023/01/06 06:51:54;;;;;;;2.40;2.20;;;10.70;99.90;;;;;;5114049;28;20960;-55
2023/01/06 06:54:23;;;;;;;1.90;1.80;;;10.70;99.90;;;;;;5112604;28;20442;-56
2023/01/06 06:56:50;;;;;;;2.63;2.13;;;10.70;99.90;;;;;;5114266;28;20596;-55
2023/01/06 06:59:17;;;;;;;2.20;2.00;;;10.70;99.90;;;;;;5114412;28;20469;-55
2023/01/06 07:01:44;;;;;;;2.10;1.90;;;10.60;99.90;;;;;;5112602;28;20462;-55
2023/01/06 07:04:11;;;;;;;2.53;2.07;;;10.70;99.90;;;;;;5114358;28;20939;-56
2023/01/06 07:06:39;;;;;;;2.50;2.30;;;10.80;99.90;;;;;;5114055;28;20542;-55
2023/01/06 07:09:06;;;;;;;1.93;1.83;;;10.70;99.90;;;;;;5112666;28;20489;-56
2023/01/06 07:11:34;;;;;;;2.50;1.90;;;10.70;99.90;;;;;;5114056;28;20498;-55
2023/01/06 07:14:01;;;;;;;2.23;2.03;;;10.70;99.90;;;;;;5113797;28;20453;-56
2023/01/06 07:16:29;;;;;;;2.30;2.00;;;10.80;99.90;;;;;;5112332;28;20442;-55
2023/01/06 07:18:56;;;;;;;1.87;1.77;;;10.80;99.90;;;;;;5113892;28;20582;-55
2023/01/06 07:21:23;;;;;;;2.43;2.10;;;10.80;99.90;;;;;;5113672;28;20988;-56
2023/01/06 07:23:51;;;;;;;1.60;1.50;;;10.90;99.90;;;;;;5111905;28;20507;-55
2023/01/06 07:26:18;;;;;;;1.77;1.67;;;10.90;99.90;;;;;;5113466;28;20956;-55
2023/01/06 07:28:46;;;;;;;2.50;2.30;;;10.90;99.90;;;;;;5113678;28;20538;-55
2023/01/06 07:31:13;;;;;;;2.90;1.90;;;10.90;99.90;;;;;;5111476;28;20499;-55
2023/01/06 07:33:40;;;;;;;1.90;1.80;;;10.90;99.90;;;;;;5113600;28;20474;-56
2023/01/06 07:36:08;;;;;;;1.70;1.60;;;11.00;99.90;;;;;;5113799;28;20464;-55
2023/01/06 07:38:36;;;;;;;2.73;2.00;;;11.00;99.90;;;;;;5111909;28;20489;-55
2023/01/06 07:41:03;;;;;;;2.37;2.17;;;10.90;99.90;;;;;;5113812;28;20546;-55
2023/01/06 07:43:30;;;;;;;1.93;1.73;;;10.90;99.90;;;;;;5113493;28;20450;-55
2023/01/06 07:45:59;;;;;;;2.37;2.17;;;10.80;99.90;;;;;;5111104;28;20485;-55
2023/01/06 07:48:26;;;;;;;4.40;2.57;;;10.90;99.90;;;;;;5113290;28;20533;-55
2023/01/06 07:50:53;;;;;;;2.50;2.30;;;10.80;99.90;;;;;;5113152;28;20472;-55
2023/01/06 07:53:23;;;;;;;2.13;1.93;;;10.80;99.90;;;;;;5111271;28;20457;-56
2023/01/06 07:55:54;;;;;;;2.93;2.10;;;10.80;99.90;;;;;;5113100;28;20446;-55
2023/01/06 07:58:22;;;;;;;2.50;2.30;;;10.70;99.90;;;;;;5113305;28;20984;-54
2023/01/06 08:00:52;;;;;;;2.50;2.30;;;10.60;99.90;;;;;;5111301;28;20466;-55
2023/01/06 08:03:21;;;;;;;1.83;1.70;;;10.70;99.90;;;;;;5113052;28;20452;-54
2023/01/06 08:05:48;;;;;;;2.60;2.40;;;10.70;99.90;;;;;;5113700;28;20443;-55
2023/01/06 08:08:15;;;;;;;2.90;2.70;;;10.70;99.90;;;;;;5111252;28;20457;-54
2023/01/06 08:10:43;;;;;;;2.53;2.33;;;10.60;99.90;;;;;;5112998;28;20520;-55
2023/01/06 08:13:11;;;;;;;3.37;2.60;;;10.50;99.90;;;;;;5113363;28;20438;-55
2023/01/06 08:15:39;;;;;;;3.10;2.33;;;10.60;99.90;;;;;;5111241;28;20442;-55
2023/01/06 08:18:06;;;;;;;2.10;2.00;;;10.50;99.90;;;;;;5113308;28;20480;-55
2023/01/06 08:20:35;;;;;;;2.37;2.17;;;10.50;99.90;;;;;;5113295;28;20470;-54
2023/01/06 08:23:02;;;;;;;2.37;2.17;;;10.50;99.90;;;;;;5111093;28;20451;-55
2023/01/06 08:25:29;;;;;;;2.40;2.20;;;10.50;99.90;;;;;;5112954;28;20442;-54
2023/01/06 08:27:59;;;;;;;2.93;2.40;;;10.50;99.90;;;;;;5116657;28;20434;-54
2023/01/06 08:30:26;;;;;;;2.33;2.20;;;10.50;99.90;;;;;;5115157;28;20462;-54
2023/01/06 08:32:56;;;;;;;2.43;2.27;;;10.50;99.90;;;;;;5117375;28;20454;-54
2023/01/06 08:35:23;;;;;;;2.50;2.30;;;10.40;99.90;;;;;;5117263;28;20437;-55
2023/01/06 08:37:52;;;;;;;2.17;2.07;;;10.50;99.90;;;;;;5115172;28;20839;-55
2023/01/06 08:40:19;;;;;;;2.40;2.20;;;10.50;99.90;;;;;;5117149;28;20851;-56
2023/01/06 08:42:47;;;;;;;2.50;2.30;;;10.50;99.90;;;;;;5116934;28;20430;-55
2023/01/06 08:45:14;;;;;;;2.47;2.00;;;10.50;99.90;;;;;;5114763;28;20886;-56
2023/01/06 08:47:41;;;;;;;2.57;2.37;;;10.40;99.90;;;;;;5116865;28;20951;-55
2023/01/06 08:50:08;;;;;;;2.10;1.90;;;10.30;99.90;;;;;;5116910;28;20976;-54
2023/01/06 08:52:35;;;;;;;2.00;1.90;;;10.30;99.90;;;;;;5114605;28;20445;-55
2023/01/06 08:55:04;;;;;;;2.10;2.00;;;10.30;99.90;;;;;;5116465;28;21024;-54
2023/01/06 08:57:31;;;;;;;4.37;2.13;;;10.20;99.90;;;;;;5116597;28;20486;-54
2023/01/06 08:59:59;;;;;;;1.90;1.70;;;10.30;99.90;;;;;;5114642;28;20439;-54
2023/01/06 09:02:28;;;;;;;2.27;2.07;;;10.30;99.90;;;;;;5116499;28;20941;-54
2023/01/06 09:04:55;;;;;;;1.90;1.70;;;10.20;99.90;;;;;;5116310;28;20510;-55
2023/01/06 09:07:22;;;;;;;2.70;1.90;;;10.10;99.90;;;;;;5114485;28;20450;-54
2023/01/06 09:09:49;;;;;;;1.47;1.37;;;10.10;99.90;;;;;;5116613;28;20473;-54
2023/01/06 09:12:18;;;;;;;1.60;1.50;;;10.00;99.90;;;;;;5116213;28;20446;-54
2023/01/06 09:14:45;;;;;;;1.63;1.53;;;10.00;99.90;;;;;;5114118;28;20453;-55
2023/01/06 09:17:12;;;;;;;2.00;1.80;;;10.00;99.90;;;;;;5115538;28;20461;-55
2023/01/06 09:19:39;;;;;;;1.67;1.30;;;10.00;99.90;;;;;;5116521;28;20752;-55
2023/01/06 09:22:07;;;;;;;2.13;1.50;;;10.10;99.90;;;;;;5114128;28;20959;-54
2023/01/06 09:24:34;;;;;;;1.87;1.60;;;10.10;99.90;;;;;;5115397;28;20427;-54
2023/01/06 09:27:01;;;;;;;2.33;1.33;;;10.10;99.90;;;;;;5116319;28;20443;-54
2023/01/06 09:29:30;;;;;;;4.47;1.63;;;10.20;99.90;;;;;;5113937;28;20441;-55
2023/01/06 09:31:57;;;;;;;2.07;1.30;;;10.30;99.90;;;;;;5115990;28;20451;-54
2023/01/06 09:34:24;;;;;;;1.63;1.17;;;10.40;99.90;;;;;;5115939;28;20451;-54
2023/01/06 09:36:52;;;;;;;1.37;1.27;;;10.30;99.90;;;;;;5108365;28;20951;-56
2023/01/06 09:39:19;;;;;;;1.60;1.50;;;10.40;99.90;;;;;;5112303;28;20674;-55
2023/01/06 09:42:06;;;;;;;1.47;1.37;;;10.50;99.90;;;;;;5115294;28;20804;-56
2023/01/06 09:44:43;;;;;;;1.40;1.30;;;10.60;99.90;;;;;;5100078;28;20528;-56
2023/01/06 09:47:13;;;;;;;1.63;1.40;;;10.90;99.90;;;;;;5113969;28;20964;-56
2023/01/06 09:49:44;;;;;;;2.50;1.60;;;10.90;99.90;;;;;;5112946;28;20506;-55
2023/01/06 09:52:19;;;;;;;1.50;1.40;;;11.00;99.90;;;;;;5099191;28;20816;-56
2023/01/06 09:54:53;;;;;;;1.93;1.40;;;11.00;99.90;;;;;;5106667;28;20469;-55
2023/01/06 09:57:28;;;;;;;1.57;1.47;;;11.20;99.90;;;;;;5115544;28;20433;-56
2023/01/06 10:00:00;;;;;;;2.50;1.50;;;11.20;99.90;;;;;;5112356;28;20473;-56
2023/01/06 10:02:32;;;;;;;1.47;1.37;;;11.60;99.90;;;;;;5115332;28;20808;-56
2023/01/06 10:05:14;;;;;;;1.93;1.40;;;11.70;99.90;;;;;;5114978;28;20422;-55
2023/01/06 10:07:48;;;;;;;1.33;1.23;;;11.80;99.90;;;;;;5111181;28;20465;-55
2023/01/06 10:10:23;;;;;;;1.40;1.30;;;11.90;99.90;;;;;;5113489;28;20474;-56
2023/01/06 10:13:00;;;;;;;1.47;1.37;;;11.80;99.90;;;;;;5114930;28;20430;-56
2023/01/06 10:15:39;;;;;;;1.50;1.40;;;11.90;99.90;;;;;;5113158;28;20438;-55
2023/01/06 10:18:23;;;;;;;2.67;1.40;;;11.90;99.90;;;;;;5114641;28;20477;-55
2023/01/06 10:21:06;;;;;;;1.30;1.20;;;11.80;99.90;;;;;;5109831;28;20486;-56
2023/01/06 10:23:57;;;;;;;2.00;1.80;;;11.80;99.90;;;;;;5111065;28;20515;-55
2023/01/06 10:26:29;;;;;;;2.00;1.50;;;11.80;99.90;;;;;;5110234;28;20444;-55
2023/01/06 10:29:02;;;;;;;2.13;1.33;;;11.90;99.90;;;;;;5112893;28;20431;-56
2023/01/06 10:31:34;;;;;;;1.60;1.50;;;11.80;99.90;;;;;;5113828;28;20465;-56
2023/01/06 10:34:03;;;;;;;1.60;1.47;;;11.90;99.90;;;;;;5114243;28;20446;-55
2023/01/06 10:36:33;;;;;;;1.47;1.37;;;11.90;99.90;;;;;;5111712;28;20455;-55
2023/01/06 10:39:05;;;;;;;3.03;1.37;;;12.00;99.90;;;;;;5114913;28;20631;-56
2023/01/06 10:41:43;;;;;;;1.53;1.43;;;12.10;99.90;;;;;;5113503;28;20470;-56
2023/01/06 10:44:11;;;;;;;1.30;1.20;;;12.20;99.90;;;;;;5110706;28;20489;-55
2023/01/06 10:46:44;;;;;;;1.30;1.00;;;12.40;99.90;;;;;;5114184;28;20483;-56
2023/01/06 10:49:15;;;;;;;1.40;1.00;;;12.30;99.90;;;;;;5113952;28;20419;-56
2023/01/06 10:51:47;;;;;;;1.27;1.17;;;12.10;99.90;;;;;;5110825;28;20839;-55
2023/01/06 10:54:18;;;;;;;1.30;1.10;;;12.10;99.90;;;;;;5113148;28;20454;-56
2023/01/06 10:56:52;;;;;;;1.00;0.90;;;12.00;99.90;;;;;;5113550;28;20443;-56
2023/01/06 10:59:21;;;;;;;1.20;1.10;;;11.90;99.90;;;;;;5109760;28;20462;-55
2023/01/06 11:01:51;;;;;;;2.70;1.50;;;11.80;99.90;;;;;;5112802;28;21056;-56
2023/01/06 11:04:20;;;;;;;1.30;1.13;;;11.70;99.90;;;;;;5112810;28;20539;-55
2023/01/06 11:06:51;;;;;;;1.23;1.10;;;11.80;99.90;;;;;;5112487;28;20490;-56
2023/01/06 11:09:29;;;;;;;1.10;1.00;;;11.80;99.90;;;;;;5113465;28;20470;-56
2023/01/06 11:11:59;;;;;;;1.30;1.20;;;11.80;99.90;;;;;;5113425;28;20529;-56
2023/01/06 11:14:29;;;;;;;1.60;1.23;;;11.90;99.90;;;;;;5110917;28;20462;-57
2023/01/06 11:17:01;;;;;;;3.90;2.60;;;11.90;99.90;;;;;;5112241;28;20455;-54
2023/01/06 11:19:37;;;;;;;1.67;1.57;;;11.90;99.90;;;;;;5107220;28;20467;-53
2023/01/06 11:22:06;;;;;;;1.27;1.17;;;12.00;99.90;;;;;;5108880;28;20439;-54
2023/01/06 11:24:33;;;;;;;1.30;1.20;;;12.10;99.90;;;;;;5112797;28;20515;-52
2023/01/06 11:27:02;;;;;;;1.20;1.10;;;12.10;99.90;;;;;;5098543;28;20953;-52
2023/01/06 11:29:32;;;;;;;1.70;1.30;;;12.00;99.90;;;;;;5091781;28;20529;-52
2023/01/06 11:32:05;;;;;;;1.90;1.60;;;12.00;99.90;;;;;;5111763;28;20449;-52
2023/01/06 11:34:33;;;;;;;1.67;1.50;;;12.00;99.90;;;;;;5111049;28;20486;-52
2023/01/06 11:37:00;;;;;;;1.30;1.20;;;12.00;99.90;;;;;;5113264;28;20808;-51
2023/01/06 11:39:33;;;;;;;2.70;1.40;;;12.10;99.90;;;;;;5112468;28;20912;-52
2023/01/06 11:42:08;;;;;;;2.10;1.90;;;12.20;99.90;;;;;;5111154;28;20450;-55
2023/01/06 11:44:37;;;;;;;4.07;1.37;;;12.20;99.90;;;;;;5112146;28;20560;-51
2023/01/06 11:47:08;;;;;;;2.47;1.20;;;12.20;99.90;;;;;;5112035;28;20443;-51
2023/01/06 11:49:37;;;;;;;1.80;1.20;;;12.30;99.90;;;;;;5092393;28;20869;-53
2023/01/06 11:52:07;;;;;;;1.40;1.30;;;12.60;99.90;;;;;;5113169;28;20500;-51
2023/01/06 11:54:37;;;;;;;2.60;2.07;;;12.90;99.90;;;;;;5111923;28;20462;-55
2023/01/06 11:57:23;;;;;;;1.43;1.33;;;13.00;99.90;;;;;;5111405;28;20908;-52
2023/01/06 12:00:30;;;;;;;1.63;1.43;;;13.00;99.90;;;;;;5112582;28;20482;-49
2023/01/06 12:03:06;;;;;;;1.50;1.33;;;13.00;99.90;;;;;;5101087;28;20457;-53
2023/01/06 12:05:38;;;;;;;1.27;1.17;;;13.10;99.90;;;;;;5111130;28;20909;-54
2023/01/06 12:08:14;;;;;;;1.30;1.20;;;12.90;99.90;;;;;;5113172;28;20446;-55
2023/01/06 12:10:45;;;;;;;1.40;1.30;;;12.90;99.90;;;;;;5112946;28;20531;-53
2023/01/06 12:13:13;;;;;;;1.30;1.20;;;12.90;99.90;;;;;;5110481;28;20543;-55
2023/01/06 12:15:42;;;;;;;1.30;1.20;;;12.80;99.90;;;;;;5112870;28;20442;-57
2023/01/06 12:18:17;;;;;;;1.43;1.33;;;12.60;99.90;;;;;;5104252;28;20444;-55
2023/01/06 12:20:47;;;;;;;1.40;1.30;;;12.60;99.90;;;;;;5098088;28;20901;-55
2023/01/06 12:23:20;;;;;;;1.20;1.10;;;12.50;99.90;;;;;;5097390;28;20863;-56
2023/01/06 12:25:49;;;;;;;1.20;1.10;;;12.60;99.90;;;;;;5112518;28;20948;-57
2023/01/06 12:28:21;;;;;;;1.60;1.50;;;12.60;99.90;;;;;;5110861;28;20438;-57
2023/01/06 12:30:53;;;;;;;3.27;2.97;;;12.60;99.90;;;;;;5110546;28;20836;-56
2023/01/06 12:33:25;;;;;;;28.00;19.60;;;12.50;99.90;;;;;;5112761;28;20435;-55
2023/01/06 12:35:56;;;;;;;9.83;7.27;;;12.40;99.90;;;;;;5110511;28;20462;-56
2023/01/06 12:38:34;;;;;;;6.67;4.63;;;12.40;99.90;;;;;;5112733;28;20456;-55
2023/01/06 12:41:05;;;;;;;1.57;1.40;;;12.40;99.90;;;;;;5108278;28;20478;-56
2023/01/06 12:43:37;;;;;;;1.70;1.60;;;12.50;99.90;;;;;;5111556;28;20901;-56
2023/01/06 12:46:11;;;;;;;1.50;1.30;;;12.30;99.90;;;;;;5109910;28;20540;-56
2023/01/06 12:48:45;;;;;;;1.60;1.30;;;12.30;99.90;;;;;;5107032;28;20452;-56
2023/01/06 12:51:16;;;;;;;1.87;1.77;;;12.30;99.90;;;;;;5112244;28;20573;-56
2023/01/06 12:53:49;;;;;;;1.70;1.40;;;12.20;99.90;;;;;;5112477;28;20856;-56
2023/01/06 12:56:40;;;;;;;2.00;1.40;;;12.20;99.90;;;;;;5110012;28;21006;-56
2023/01/06 12:59:18;;;;;;;1.50;1.40;;;12.30;99.90;;;;;;5112477;28;20473;-56
2023/01/06 13:01:51;;;;;;;1.40;1.30;;;12.30;99.90;;;;;;5112434;28;20874;-56
2023/01/06 13:04:47;;;;;;;1.50;1.27;;;12.20;99.90;;;;;;5109868;28;20457;-56
2023/01/06 13:07:28;;;;;;;2.23;1.40;;;12.30;99.90;;;;;;5092199;28;20456;-56
2023/01/06 13:10:04;;;;;;;1.30;1.20;;;12.30;99.90;;;;;;5100420;28;20470;-56